Weather at La Quercia

Public forecast

Using degrees Celsius for public forecast. Weather courtesy of forecast.io.

Closest aviation weather report (METAR) to La Quercia

Closest report is Bari Karol Wojtyła Airport, 12.0 nm (22.3 km) NNE.

2024/05/22 18:20 (retrieved 33 minutes ago)

LIBD 221820Z 24003KT 210V280 9999 FEW030 19/13 Q1014

Closest aviation forecast (TAF) to La Quercia

Closest forecast is Bari Karol Wojtyła Airport, 12.0 nm (22.3 km) NNE.

2024/05/22 18:00 (retrieved 53 minutes ago)

TAF LIBD 221700Z 2218/2318 VRB05KT CAVOK BECMG 2302/2304 26010KT BECMG 2309/2311 01012KT